sensor_id;sensor_type;location;lat;lon;timestamp;pressure;altitude;pressure_sealevel;temperature;humidity
53270;BME280;39159;45.634;9.420;2024-03-02T00:00:05;97945.00;;;8.11;100.00
53270;BME280;39159;45.634;9.420;2024-03-02T00:02:45;97952.34;;;8.10;100.00
53270;BME280;39159;45.634;9.420;2024-03-02T00:05:11;97952.34;;;8.10;100.00
53270;BME280;39159;45.634;9.420;2024-03-02T00:07:37;97953.97;;;8.12;100.00
53270;BME280;39159;45.634;9.420;2024-03-02T00:10:08;97953.13;;;8.11;100.00
53270;BME280;39159;45.634;9.420;2024-03-02T00:12:38;97952.84;;;8.13;100.00
53270;BME280;39159;45.634;9.420;2024-03-02T00:18:02;97960.19;;;8.12;100.00
53270;BME280;39159;45.634;9.420;2024-03-02T00:20:29;97958.56;;;8.11;100.00
53270;BME280;39159;45.634;9.420;2024-03-02T00:23:08;97956.84;;;8.15;100.00
53270;BME280;39159;45.634;9.420;2024-03-02T00:28:11;97959.84;;;8.14;100.00
53270;BME280;39159;45.634;9.420;2024-03-02T00:30:55;97961.47;;;8.15;100.00
53270;BME280;39159;45.634;9.420;2024-03-02T00:33:22;97963.06;;;8.16;100.00
53270;BME280;39159;45.634;9.420;2024-03-02T00:35:49;97956.84;;;8.15;100.00
53270;BME280;39159;45.634;9.420;2024-03-02T00:38:14;97964.50;;;8.13;100.00
53270;BME280;39159;45.634;9.420;2024-03-02T00:40:41;97966.13;;;8.14;100.00
53270;BME280;39159;45.634;9.420;2024-03-02T00:43:18;97969.63;;;8.15;100.00
53270;BME280;39159;45.634;9.420;2024-03-02T00:45:53;97961.28;;;8.11;100.00
53270;BME280;39159;45.634;9.420;2024-03-02T00:48:18;97973.00;;;8.12;100.00
53270;BME280;39159;45.634;9.420;2024-03-02T00:50:43;97968.50;;;8.16;100.00
53270;BME280;39159;45.634;9.420;2024-03-02T00:53:10;97969.63;;;8.15;100.00
53270;BME280;39159;45.634;9.420;2024-03-02T00:55:37;97965.47;;;8.17;100.00
53270;BME280;39159;45.634;9.420;2024-03-02T00:58:03;97973.94;;;8.16;100.00
53270;BME280;39159;45.634;9.420;2024-03-02T01:00:28;97975.06;;;8.15;100.00
53270;BME280;39159;45.634;9.420;2024-03-02T01:02:53;97966.72;;;8.11;100.00
53270;BME280;39159;45.634;9.420;2024-03-02T01:05:19;97971.06;;;8.12;100.00
53270;BME280;39159;45.634;9.420;2024-03-02T01:07:45;97969.63;;;8.15;100.00
53270;BME280;39159;45.634;9.420;2024-03-02T01:10:11;97966.91;;;8.15;100.00
53270;BME280;39159;45.634;9.420;2024-03-02T01:12:36;97967.69;;;8.15;100.00
53270;BME280;39159;45.634;9.420;2024-03-02T01:15:02;97970.41;;;8.15;100.00
53270;BME280;39159;45.634;9.420;2024-03-02T01:17:30;97960.81;;;8.09;100.00
53270;BME280;39159;45.634;9.420;2024-03-02T01:19:55;97958.91;;;8.09;100.00
53270;BME280;39159;45.634;9.420;2024-03-02T01:22:21;97964.19;;;8.15;100.00
53270;BME280;39159;45.634;9.420;2024-03-02T01:24:50;97962.25;;;8.15;100.00
53270;BME280;39159;45.634;9.420;2024-03-02T01:27:16;97959.53;;;8.06;100.00
53270;BME280;39159;45.634;9.420;2024-03-02T01:29:41;97951.84;;;8.08;100.00
53270;BME280;39159;45.634;9.420;2024-03-02T01:32:07;97954.91;;;8.16;100.00
53270;BME280;39159;45.634;9.420;2024-03-02T01:34:32;97955.56;;;8.13;100.00
53270;BME280;39159;45.634;9.420;2024-03-02T01:36:57;97969.31;;;8.16;100.00
53270;BME280;39159;45.634;9.420;2024-03-02T01:39:23;97961.78;;;8.13;100.00
53270;BME280;39159;45.634;9.420;2024-03-02T01:41:48;97955.56;;;8.13;100.00
53270;BME280;39159;45.634;9.420;2024-03-02T01:44:13;97956.97;;;8.10;100.00
53270;BME280;39159;45.634;9.420;2024-03-02T01:46:39;97953.81;;;8.17;100.00
53270;BME280;39159;45.634;9.420;2024-03-02T01:49:06;97959.25;;;8.17;100.00
53270;BME280;39159;45.634;9.420;2024-03-02T01:51:31;97964.00;;;8.11;100.00
53270;BME280;39159;45.634;9.420;2024-03-02T01:53:56;97957.97;;;8.14;100.00
53270;BME280;39159;45.634;9.420;2024-03-02T01:56:22;97956.69;;;8.12;100.00
53270;BME280;39159;45.634;9.420;2024-03-02T01:58:47;97960.00;;;8.08;100.00
53270;BME280;39159;45.634;9.420;2024-03-02T02:01:13;97955.22;;;8.05;100.00
53270;BME280;39159;45.634;9.420;2024-03-02T02:03:38;97952.00;;;8.03;100.00
53270;BME280;39159;45.634;9.420;2024-03-02T02:06:05;97950.41;;;8.02;100.00
53270;BME280;39159;45.634;9.420;2024-03-02T02:08:32;97952.00;;;8.03;100.00
53270;BME280;39159;45.634;9.420;2024-03-02T02:10:57;97953.94;;;8.03;100.00
53270;BME280;39159;45.634;9.420;2024-03-02T02:13:23;97950.09;;;8.04;100.00
53270;BME280;39159;45.634;9.420;2024-03-02T02:15:49;97941.75;;;8.00;100.00
53270;BME280;39159;45.634;9.420;2024-03-02T02:18:14;97942.09;;;7.99;100.00
53270;BME280;39159;45.634;9.420;2024-03-02T02:20:39;97944.84;;;8.07;100.00
53270;BME280;39159;45.634;9.420;2024-03-02T02:23:05;97945.28;;;8.01;100.00
53270;BME280;39159;45.634;9.420;2024-03-02T02:25:33;97942.88;;;7.99;100.00
53270;BME280;39159;45.634;9.420;2024-03-02T02:27:58;97947.06;;;8.05;100.00
53270;BME280;39159;45.634;9.420;2024-03-02T02:30:25;97942.59;;;8.01;100.00
53270;BME280;39159;45.634;9.420;2024-03-02T02:32:51;97941.94;;;8.04;100.00
53270;BME280;39159;45.634;9.420;2024-03-02T02:35:17;97942.13;;;8.07;100.00
53270;BME280;39159;45.634;9.420;2024-03-02T02:37:43;97941.94;;;8.04;100.00
53270;BME280;39159;45.634;9.420;2024-03-02T02:40:08;97942.13;;;8.07;100.00
53270;BME280;39159;45.634;9.420;2024-03-02T02:42:34;97950.56;;;8.06;100.00
53270;BME280;39159;45.634;9.420;2024-03-02T02:44:59;97939.22;;;8.04;100.00
53270;BME280;39159;45.634;9.420;2024-03-02T02:47:25;97939.22;;;8.04;100.00
53270;BME280;39159;45.634;9.420;2024-03-02T02:49:51;97939.53;;;8.02;100.00
53270;BME280;39159;45.634;9.420;2024-03-02T02:52:16;97933.78;;;8.04;100.00
53270;BME280;39159;45.634;9.420;2024-03-02T02:54:42;97930.59;;;8.02;100.00
53270;BME280;39159;45.634;9.420;2024-03-02T02:57:08;97930.28;;;8.03;100.00
53270;BME280;39159;45.634;9.420;2024-03-02T02:59:35;97937.78;;;8.06;100.00
53270;BME280;39159;45.634;9.420;2024-03-02T03:02:00;97935.41;;;8.05;100.00
53270;BME280;39159;45.634;9.420;2024-03-02T03:04:26;97937.00;;;8.06;100.00
53270;BME280;39159;45.634;9.420;2024-03-02T03:06:51;97929.31;;;8.08;100.00
53270;BME280;39159;45.634;9.420;2024-03-02T03:09:16;97943.41;;;8.10;100.00
53270;BME280;39159;45.634;9.420;2024-03-02T03:11:42;97943.09;;;8.12;100.00
53270;BME280;39159;45.634;9.420;2024-03-02T03:14:07;97942.75;;;8.13;100.00
53270;BME280;39159;45.634;9.420;2024-03-02T03:16:33;97941.16;;;8.12;100.00
53270;BME280;39159;45.634;9.420;2024-03-02T03:18:58;97938.75;;;8.10;100.00
53270;BME280;39159;45.634;9.420;2024-03-02T03:21:23;97933.31;;;8.10;100.00
53270;BME280;39159;45.634;9.420;2024-03-02T03:23:49;97936.69;;;8.07;100.00
53270;BME280;39159;45.634;9.420;2024-03-02T03:26:14;97937.31;;;8.13;100.00
53270;BME280;39159;45.634;9.420;2024-03-02T03:28:40;97934.44;;;8.09;100.00
53270;BME280;39159;45.634;9.420;2024-03-02T03:31:05;97938.75;;;8.10;100.00
53270;BME280;39159;45.634;9.420;2024-03-02T03:33:31;97941.31;;;8.16;100.00
53270;BME280;39159;45.634;9.420;2024-03-02T03:35:56;97942.94;;;8.17;100.00
53270;BME280;39159;45.634;9.420;2024-03-02T03:38:22;97949.81;;;8.23;100.00
53270;BME280;39159;45.634;9.420;2024-03-02T03:40:47;97949.66;;;8.28;100.00
53270;BME280;39159;45.634;9.420;2024-03-02T03:43:13;97950.47;;;8.28;100.00
53270;BME280;39159;45.634;9.420;2024-03-02T03:45:38;97958.13;;;8.26;100.00
53270;BME280;39159;45.634;9.420;2024-03-02T03:48:03;97947.75;;;8.28;100.00
53270;BME280;39159;45.634;9.420;2024-03-02T03:50:29;97947.91;;;8.23;100.00
53270;BME280;39159;45.634;9.420;2024-03-02T03:52:54;97948.84;;;8.19;100.00
53270;BME280;39159;45.634;9.420;2024-03-02T03:55:20;97954.78;;;8.21;100.00
53270;BME280;39159;45.634;9.420;2024-03-02T03:57:45;97960.69;;;8.23;100.00
53270;BME280;39159;45.634;9.420;2024-03-02T04:00:11;97956.84;;;8.24;100.00
53270;BME280;39159;45.634;9.420;2024-03-02T04:02:37;97960.06;;;8.26;100.00
53270;BME280;39159;45.634;9.420;2024-03-02T04:05:02;97969.97;;;8.22;100.00
53270;BME280;39159;45.634;9.420;2024-03-02T04:07:30;97960.53;;;8.19;100.00
53270;BME280;39159;45.634;9.420;2024-03-02T04:09:55;97963.72;;;8.21;100.00
53270;BME280;39159;45.634;9.420;2024-03-02T04:12:21;97968.53;;;8.24;100.00
53270;BME280;39159;45.634;9.420;2024-03-02T04:14:47;97976.38;;;8.26;100.00
53270;BME280;39159;45.634;9.420;2024-03-02T04:17:12;97976.53;;;8.29;100.00
53270;BME280;39159;45.634;9.420;2024-03-02T04:19:38;97983.56;;;8.30;100.00
53270;BME280;39159;45.634;9.420;2024-03-02T04:22:04;97983.41;;;8.36;100.00
53270;BME280;39159;45.634;9.420;2024-03-02T04:24:29;97983.59;;;8.39;100.00
53270;BME280;39159;45.634;9.420;2024-03-02T04:26:55;97986.03;;;8.41;100.00
53270;BME280;39159;45.634;9.420;2024-03-02T04:29:20;97988.53;;;8.37;100.00
53270;BME280;39159;45.634;9.420;2024-03-02T04:31:46;97981.16;;;8.29;100.00
53270;BME280;39159;45.634;9.420;2024-03-02T04:34:11;97976.84;;;8.28;100.00
53270;BME280;39159;45.634;9.420;2024-03-02T04:36:36;97977.31;;;8.21;100.00
53270;BME280;39159;45.634;9.420;2024-03-02T04:39:02;97976.06;;;8.27;100.00
53270;BME280;39159;45.634;9.420;2024-03-02T04:41:27;97987.09;;;8.31;100.00
53270;BME280;39159;45.634;9.420;2024-03-02T04:43:53;97981.03;;;8.34;100.00
53270;BME280;39159;45.634;9.420;2024-03-02T04:46:18;97983.56;;;8.30;100.00
53270;BME280;39159;45.634;9.420;2024-03-02T04:48:43;97982.63;;;8.35;100.00
53270;BME280;39159;45.634;9.420;2024-03-02T04:51:09;97984.72;;;8.38;100.00
53270;BME280;39159;45.634;9.420;2024-03-02T04:53:35;97988.22;;;8.39;100.00
53270;BME280;39159;45.634;9.420;2024-03-02T04:56:00;97993.66;;;8.30;100.00
53270;BME280;39159;45.634;9.420;2024-03-02T04:58:44;97989.00;;;8.30;100.00
53270;BME280;39159;45.634;9.420;2024-03-02T05:01:09;97997.47;;;8.29;100.00
53270;BME280;39159;45.634;9.420;2024-03-02T05:03:35;97999.69;;;8.27;100.00
53270;BME280;39159;45.634;9.420;2024-03-02T05:06:01;97991.09;;;8.25;100.00
53270;BME280;39159;45.634;9.420;2024-03-02T05:08:26;98000.66;;;8.22;100.00
53270;BME280;39159;45.634;9.420;2024-03-02T05:10:51;98002.09;;;8.20;100.00
53270;BME280;39159;45.634;9.420;2024-03-02T05:13:17;98015.53;;;8.16;100.00
53270;BME280;39159;45.634;9.420;2024-03-02T05:15:42;98009.91;;;8.13;100.00
53270;BME280;39159;45.634;9.420;2024-03-02T05:18:08;98006.53;;;8.16;100.00
53270;BME280;39159;45.634;9.420;2024-03-02T05:20:34;98017.91;;;8.18;100.00
53270;BME280;39159;45.634;9.420;2024-03-02T05:22:59;98024.31;;;8.22;100.00
53270;BME280;39159;45.634;9.420;2024-03-02T05:25:25;98017.28;;;8.21;100.00
53270;BME280;39159;45.634;9.420;2024-03-02T05:27:50;98018.09;;;8.21;100.00
53270;BME280;39159;45.634;9.420;2024-03-02T05:30:16;98024.63;;;8.20;100.00
53270;BME280;39159;45.634;9.420;2024-03-02T05:32:41;98026.53;;;8.20;100.00
53270;BME280;39159;45.634;9.420;2024-03-02T05:35:07;98027.97;;;8.17;100.00
53270;BME280;39159;45.634;9.420;2024-03-02T05:37:33;98035.63;;;8.15;100.00
53270;BME280;39159;45.634;9.420;2024-03-02T05:39:59;98026.06;;;8.18;100.00
53270;BME280;39159;45.634;9.420;2024-03-02T05:42:24;98026.38;;;8.16;100.00
53270;BME280;39159;45.634;9.420;2024-03-02T05:44:50;98023.66;;;8.16;100.00
53270;BME280;39159;45.634;9.420;2024-03-02T05:47:15;98025.41;;;8.12;100.00
53270;BME280;39159;45.634;9.420;2024-03-02T05:49:40;98028.44;;;8.10;100.00
53270;BME280;39159;45.634;9.420;2024-03-02T05:52:06;98027.63;;;8.10;100.00
53270;BME280;39159;45.634;9.420;2024-03-02T05:54:32;98031.34;;;8.14;100.00
53270;BME280;39159;45.634;9.420;2024-03-02T05:56:57;98039.66;;;8.18;100.00
53270;BME280;39159;45.634;9.420;2024-03-02T05:59:41;98039.66;;;8.18;100.00
53270;BME280;39159;45.634;9.420;2024-03-02T06:02:06;98042.69;;;8.16;100.00
53270;BME280;39159;45.634;9.420;2024-03-02T06:04:31;98050.41;;;8.23;100.00
53270;BME280;39159;45.634;9.420;2024-03-02T06:06:57;98053.00;;;8.37;100.00
53270;BME280;39159;45.634;9.420;2024-03-02T06:09:23;98046.97;;;8.48;100.00
53270;BME280;39159;45.634;9.420;2024-03-02T06:11:49;98053.72;;;8.60;100.00
53270;BME280;39159;45.634;9.420;2024-03-02T06:14:15;98058.88;;;8.79;100.00
53270;BME280;39159;45.634;9.420;2024-03-02T06:16:40;98058.25;;;8.90;100.00
53270;BME280;39159;45.634;9.420;2024-03-02T06:19:05;98056.00;;;8.84;100.00
53270;BME280;39159;45.634;9.420;2024-03-02T06:21:32;98056.94;;;8.79;100.00
53270;BME280;39159;45.634;9.420;2024-03-02T06:23:57;98061.59;;;8.70;100.00
53270;BME280;39159;45.634;9.420;2024-03-02T06:26:23;98064.28;;;8.61;100.00
53270;BME280;39159;45.634;9.420;2024-03-02T06:28:48;98073.25;;;8.62;100.00
53270;BME280;39159;45.634;9.420;2024-03-02T06:31:14;98068.28;;;8.64;100.00
53270;BME280;39159;45.634;9.420;2024-03-02T06:33:39;98065.06;;;8.62;100.00
53270;BME280;39159;45.634;9.420;2024-03-02T06:36:05;98070.53;;;8.62;100.00
53270;BME280;39159;45.634;9.420;2024-03-02T06:38:33;98074.69;;;8.59;100.00
53270;BME280;39159;45.634;9.420;2024-03-02T06:40:59;98081.88;;;8.64;100.00
53270;BME280;39159;45.634;9.420;2024-03-02T06:43:24;98077.91;;;8.70;100.00
53270;BME280;39159;45.634;9.420;2024-03-02T06:45:50;98082.88;;;8.77;100.00
53270;BME280;39159;45.634;9.420;2024-03-02T06:48:17;98083.03;;;8.80;100.00
53270;BME280;39159;45.634;9.420;2024-03-02T06:50:49;98090.09;;;8.81;100.00
53270;BME280;39159;45.634;9.420;2024-03-02T06:53:15;98091.06;;;8.85;100.00
53270;BME280;39159;45.634;9.420;2024-03-02T06:55:45;98094.25;;;8.87;100.00
53270;BME280;39159;45.634;9.420;2024-03-02T06:58:12;98092.81;;;8.90;100.00
53270;BME280;39159;45.634;9.420;2024-03-02T07:00:37;98093.94;;;8.98;100.00
53270;BME280;39159;45.634;9.420;2024-03-02T07:03:03;98101.00;;;8.99;100.00
53270;BME280;39159;45.634;9.420;2024-03-02T07:05:29;98104.81;;;8.98;100.00
53270;BME280;39159;45.634;9.420;2024-03-02T07:07:54;98108.84;;;9.00;100.00
53270;BME280;39159;45.634;9.420;2024-03-02T07:10:19;98106.78;;;9.06;100.00
53270;BME280;39159;45.634;9.420;2024-03-02T07:12:45;98113.81;;;9.07;100.00
53270;BME280;39159;45.634;9.420;2024-03-02T07:15:10;98116.88;;;9.05;100.00
53270;BME280;39159;45.634;9.420;2024-03-02T07:17:56;98114.63;;;9.07;100.00
53270;BME280;39159;45.634;9.420;2024-03-02T07:20:21;98118.63;;;9.10;100.00
53270;BME280;39159;45.634;9.420;2024-03-02T07:22:47;98124.06;;;9.10;100.00
53270;BME280;39159;45.634;9.420;2024-03-02T07:25:12;98119.13;;;9.12;100.00
53270;BME280;39159;45.634;9.420;2024-03-02T07:27:38;98123.41;;;9.13;100.00
53270;BME280;39159;45.634;9.420;2024-03-02T07:30:05;98128.25;;;9.16;100.00
53270;BME280;39159;45.634;9.420;2024-03-02T07:32:30;98129.03;;;9.17;100.00
53270;BME280;39159;45.634;9.420;2024-03-02T07:34:55;98136.41;;;9.16;100.00
53270;BME280;39159;45.634;9.420;2024-03-02T07:37:24;98137.69;;;9.19;100.00
53270;BME280;39159;45.634;9.420;2024-03-02T07:39:50;98131.75;;;9.17;100.00
53270;BME280;39159;45.634;9.420;2024-03-02T07:42:16;98134.63;;;9.20;100.00
53270;BME280;39159;45.634;9.420;2024-03-02T07:44:44;98133.53;;;9.21;100.00
53270;BME280;39159;45.634;9.420;2024-03-02T07:47:09;98144.25;;;9.18;100.00
53270;BME280;39159;45.634;9.420;2024-03-02T07:49:35;98142.47;;;9.13;100.00
53270;BME280;39159;45.634;9.420;2024-03-02T07:52:00;98143.63;;;9.12;100.00
53270;BME280;39159;45.634;9.420;2024-03-02T07:54:25;98148.09;;;9.17;100.00
53270;BME280;39159;45.634;9.420;2024-03-02T07:56:51;98144.41;;;9.12;100.00
53270;BME280;39159;45.634;9.420;2024-03-02T07:59:16;98153.53;;;9.17;100.00
53270;BME280;39159;45.634;9.420;2024-03-02T08:01:42;98152.91;;;9.20;100.00
53270;BME280;39159;45.634;9.420;2024-03-02T08:04:07;98145.69;;;9.15;100.00
53270;BME280;39159;45.634;9.420;2024-03-02T08:06:33;98155.63;;;9.20;100.00
53270;BME280;39159;45.634;9.420;2024-03-02T08:08:59;98152.59;;;9.21;100.00
53270;BME280;39159;45.634;9.420;2024-03-02T08:11:25;98153.38;;;9.22;100.00
53270;BME280;39159;45.634;9.420;2024-03-02T08:13:52;98152.28;;;9.23;100.00
53270;BME280;39159;45.634;9.420;2024-03-02T08:16:20;98148.41;;;9.24;100.00
53270;BME280;39159;45.634;9.420;2024-03-02T08:18:47;98160.59;;;9.26;100.00
53270;BME280;39159;45.634;9.420;2024-03-02T08:21:13;98163.63;;;9.25;100.00
53270;BME280;39159;45.634;9.420;2024-03-02T08:23:39;98164.44;;;9.25;100.00
53270;BME280;39159;45.634;9.420;2024-03-02T08:26:06;98168.59;;;9.31;100.00
53270;BME280;39159;45.634;9.420;2024-03-02T08:28:32;98165.41;;;9.29;100.00
53270;BME280;39159;45.634;9.420;2024-03-02T08:30:58;98166.53;;;9.28;100.00
53270;BME280;39159;45.634;9.420;2024-03-02T08:33:23;98166.69;;;9.23;100.00
53270;BME280;39159;45.634;9.420;2024-03-02T08:35:49;98174.84;;;9.23;100.00
53270;BME280;39159;45.634;9.420;2024-03-02T08:38:14;98179.81;;;9.21;100.00
53270;BME280;39159;45.634;9.420;2024-03-02T08:40:39;98169.91;;;9.25;100.00
53270;BME280;39159;45.634;9.420;2024-03-02T08:43:05;98178.84;;;9.26;100.00
53270;BME280;39159;45.634;9.420;2024-03-02T08:45:30;98179.50;;;9.31;100.00
53270;BME280;39159;45.634;9.420;2024-03-02T08:47:56;98180.31;;;9.32;100.00
53270;BME280;39159;45.634;9.420;2024-03-02T08:50:21;98187.34;;;9.33;100.00
53270;BME280;39159;45.634;9.420;2024-03-02T08:52:46;98199.69;;;9.30;100.00
53270;BME280;39159;45.634;9.420;2024-03-02T08:55:12;98192.47;;;9.26;100.00
53270;BME280;39159;45.634;9.420;2024-03-02T08:57:37;98194.41;;;9.25;100.00
53270;BME280;39159;45.634;9.420;2024-03-02T09:00:03;98189.75;;;9.26;100.00
53270;BME280;39159;45.634;9.420;2024-03-02T09:02:30;98194.72;;;9.24;100.00
53270;BME280;39159;45.634;9.420;2024-03-02T09:04:56;98190.22;;;9.28;100.00
53270;BME280;39159;45.634;9.420;2024-03-02T09:07:21;98197.44;;;9.32;100.00
53270;BME280;39159;45.634;9.420;2024-03-02T09:09:47;98192.78;;;9.24;100.00
53270;BME280;39159;45.634;9.420;2024-03-02T09:12:12;98194.88;;;9.27;100.00
53270;BME280;39159;45.634;9.420;2024-03-02T09:14:38;98197.75;;;9.31;100.00
53270;BME280;39159;45.634;9.420;2024-03-02T09:17:03;98197.44;;;9.32;100.00
53270;BME280;39159;45.634;9.420;2024-03-02T09:19:29;98195.03;;;9.40;100.00
53270;BME280;39159;45.634;9.420;2024-03-02T09:21:54;98197.16;;;9.43;100.00
53270;BME280;39159;45.634;9.420;2024-03-02T09:24:21;98203.53;;;9.47;100.00
53270;BME280;39159;45.634;9.420;2024-03-02T09:26:47;98207.09;;;9.47;100.00
53270;BME280;39159;45.634;9.420;2024-03-02T09:29:12;98205.66;;;9.50;100.00
53270;BME280;39159;45.634;9.420;2024-03-02T09:31:41;98210.28;;;9.49;100.00
53270;BME280;39159;45.634;9.420;2024-03-02T09:34:07;98208.69;;;9.48;100.00
53270;BME280;39159;45.634;9.420;2024-03-02T09:36:32;98203.53;;;9.47;100.00
53270;BME280;39159;45.634;9.420;2024-03-02T09:38:58;98212.19;;;9.49;100.00
53270;BME280;39159;45.634;9.420;2024-03-02T09:41:24;98207.91;;;9.57;100.00
53270;BME280;39159;45.634;9.420;2024-03-02T09:43:50;98211.59;;;9.61;100.00
53270;BME280;39159;45.634;9.420;2024-03-02T09:46:16;98209.00;;;9.64;100.00
53270;BME280;39159;45.634;9.420;2024-03-02T09:48:41;98205.97;;;9.66;100.00
53270;BME280;39159;45.634;9.420;2024-03-02T09:51:07;98208.69;;;9.74;100.00
53270;BME280;39159;45.634;9.420;2024-03-02T09:53:34;98202.44;;;9.65;100.00
53270;BME280;39159;45.634;9.420;2024-03-02T09:56:00;98192.66;;;9.64;100.00
53270;BME280;39159;45.634;9.420;2024-03-02T09:58:25;98204.03;;;9.75;100.00
53270;BME280;39159;45.634;9.420;2024-03-02T10:00:51;98205.50;;;9.90;100.00
53270;BME280;39159;45.634;9.420;2024-03-02T10:03:18;98207.88;;;10.00;100.00
53270;BME280;39159;45.634;9.420;2024-03-02T10:05:44;98196.50;;;9.98;100.00
53270;BME280;39159;45.634;9.420;2024-03-02T10:08:09;98196.16;;;10.00;100.00
53270;BME280;39159;45.634;9.420;2024-03-02T10:10:39;98193.31;;;9.96;100.00
53270;BME280;39159;45.634;9.420;2024-03-02T10:13:12;98189.44;;;9.88;100.00
53270;BME280;39159;45.634;9.420;2024-03-02T10:15:39;98175.31;;;10.12;100.00
53270;BME280;39159;45.634;9.420;2024-03-02T10:18:11;98190.69;;;10.17;100.00
53270;BME280;39159;45.634;9.420;2024-03-02T10:20:38;98198.09;;;10.34;100.00
53270;BME280;39159;45.634;9.420;2024-03-02T10:23:16;98193.88;;;10.28;100.00
53270;BME280;39159;45.634;9.420;2024-03-02T10:25:43;98199.84;;;10.30;100.00
53270;BME280;39159;45.634;9.420;2024-03-02T10:28:09;98197.59;;;10.14;100.00
53270;BME280;39159;45.634;9.420;2024-03-02T10:30:35;98196.94;;;10.17;100.00
53270;BME280;39159;45.634;9.420;2024-03-02T10:33:05;98206.09;;;10.13;100.00
53270;BME280;39159;45.634;9.420;2024-03-02T10:35:32;98204.66;;;10.15;100.00
53270;BME280;39159;45.634;9.420;2024-03-02T10:37:59;98201.28;;;10.19;100.00
53270;BME280;39159;45.634;9.420;2024-03-02T10:40:24;98199.19;;;10.15;100.00
53270;BME280;39159;45.634;9.420;2024-03-02T10:42:50;98196.47;;;10.15;100.00
53270;BME280;39159;45.634;9.420;2024-03-02T10:45:23;98207.38;;;10.15;100.00
53270;BME280;39159;45.634;9.420;2024-03-02T10:47:50;98204.66;;;10.07;100.00
53270;BME280;39159;45.634;9.420;2024-03-02T10:50:16;98202.09;;;10.02;100.00
53270;BME280;39159;45.634;9.420;2024-03-02T10:52:41;98200.66;;;9.95;100.00
53270;BME280;39159;45.634;9.420;2024-03-02T10:55:09;98202.56;;;10.12;100.00
53270;BME280;39159;45.634;9.420;2024-03-02T10:57:42;98204.63;;;10.24;100.00
53270;BME280;39159;45.634;9.420;2024-03-02T11:00:12;98201.13;;;10.24;100.00
53270;BME280;39159;45.634;9.420;2024-03-02T11:02:50;98203.19;;;10.27;100.00
53270;BME280;39159;45.634;9.420;2024-03-02T11:05:26;98206.41;;;10.29;100.00
53270;BME280;39159;45.634;9.420;2024-03-02T11:08:06;98194.53;;;10.25;100.00
53270;BME280;39159;45.634;9.420;2024-03-02T11:10:35;98203.53;;;10.25;100.00
53270;BME280;39159;45.634;9.420;2024-03-02T11:13:08;98197.25;;;10.25;100.00
53270;BME280;39159;45.634;9.420;2024-03-02T11:15:34;98202.41;;;10.17;100.00
53270;BME280;39159;45.634;9.420;2024-03-02T11:18:03;98207.84;;;10.17;100.00
53270;BME280;39159;45.634;9.420;2024-03-02T11:20:31;98215.88;;;10.23;100.00
53270;BME280;39159;45.634;9.420;2024-03-02T11:22:57;98208.31;;;10.28;100.00
53270;BME280;39159;45.634;9.420;2024-03-02T11:25:26;98211.06;;;10.28;100.00
53270;BME280;39159;45.634;9.420;2024-03-02T11:33:05;98203.25;;;10.09;100.00
53270;BME280;39159;45.634;9.420;2024-03-02T11:35:43;98200.34;;;10.14;100.00
53270;BME280;39159;45.634;9.420;2024-03-02T11:38:11;98204.81;;;10.10;100.00
53270;BME280;39159;45.634;9.420;2024-03-02T11:40:39;98202.09;;;10.19;100.00
53270;BME280;39159;45.634;9.420;2024-03-02T11:43:05;98190.03;;;10.20;100.00
53270;BME280;39159;45.634;9.420;2024-03-02T11:45:30;98193.44;;;10.17;100.00
53270;BME280;39159;45.634;9.420;2024-03-02T11:48:00;98183.00;;;10.10;100.00
53270;BME280;39159;45.634;9.420;2024-03-02T11:50:51;98191.84;;;10.07;100.00
53270;BME280;39159;45.634;9.420;2024-03-02T11:53:19;98182.84;;;10.07;100.00
53270;BME280;39159;45.634;9.420;2024-03-02T11:55:44;98174.34;;;10.08;100.00
53270;BME280;39159;45.634;9.420;2024-03-02T11:58:14;98171.63;;;10.08;100.00
53270;BME280;39159;45.634;9.420;2024-03-02T12:00:43;98168.91;;;10.08;100.00
53270;BME280;39159;45.634;9.420;2024-03-02T12:03:09;98157.06;;;9.95;100.00
53270;BME280;39159;45.634;9.420;2024-03-02T12:05:37;98158.66;;;10.05;100.00
53270;BME280;39159;45.634;9.420;2024-03-02T12:08:04;98163.13;;;10.19;100.00
53270;BME280;39159;45.634;9.420;2024-03-02T12:10:31;98161.66;;;10.21;100.00
53270;BME280;39159;45.634;9.420;2024-03-02T12:13:04;98165.38;;;10.16;100.00
53270;BME280;39159;45.634;9.420;2024-03-02T12:15:33;98165.06;;;10.09;100.00
53270;BME280;39159;45.634;9.420;2024-03-02T12:18:00;98161.03;;;10.15;100.00
53270;BME280;39159;45.634;9.420;2024-03-02T12:20:27;98159.75;;;10.30;100.00
53270;BME280;39159;45.634;9.420;2024-03-02T12:22:55;98152.19;;;10.27;100.00
53270;BME280;39159;45.634;9.420;2024-03-02T12:25:22;98145.44;;;10.33;100.00
53270;BME280;39159;45.634;9.420;2024-03-02T12:27:50;98159.25;;;10.37;100.00
53270;BME280;39159;45.634;9.420;2024-03-02T12:30:16;98146.25;;;10.43;100.00
53270;BME280;39159;45.634;9.420;2024-03-02T12:32:42;98154.06;;;10.44;100.00
53270;BME280;39159;45.634;9.420;2024-03-02T12:35:08;98146.38;;;10.46;100.00
53270;BME280;39159;45.634;9.420;2024-03-02T12:37:42;98153.31;;;10.35;100.00
53270;BME280;39159;45.634;9.420;2024-03-02T12:40:10;98150.88;;;10.42;100.00
53270;BME280;39159;45.634;9.420;2024-03-02T12:42:36;98143.50;;;10.43;100.00
53270;BME280;39159;45.634;9.420;2024-03-02T12:45:01;98146.75;;;10.27;100.00
53270;BME280;39159;45.634;9.420;2024-03-02T12:47:26;98156.34;;;10.25;100.00
53270;BME280;39159;45.634;9.420;2024-03-02T12:49:52;98153.97;;;10.32;100.00
53270;BME280;39159;45.634;9.420;2024-03-02T12:52:17;98156.06;;;10.17;100.00
53270;BME280;39159;45.634;9.420;2024-03-02T12:54:43;98150.94;;;10.16;100.00
53270;BME280;39159;45.634;9.420;2024-03-02T12:57:09;98157.34;;;10.11;100.00
53270;BME280;39159;45.634;9.420;2024-03-02T12:59:34;98154.47;;;10.16;100.00
53270;BME280;39159;45.634;9.420;2024-03-02T13:02:00;98150.09;;;10.24;100.00
53270;BME280;39159;45.634;9.420;2024-03-02T13:04:28;98149.16;;;10.11;100.00